createdAt,value
2024-04-12T00:01:43.364Z,20.20
2024-04-12T00:07:01.126Z,18.80
2024-04-12T00:12:02.834Z,28.50
2024-04-12T00:17:17.291Z,22.20
2024-04-12T00:22:19.728Z,18.20
2024-04-12T00:27:22.878Z,19.00
2024-04-12T00:32:27.573Z,18.90
2024-04-12T00:37:34.315Z,27.00
2024-04-12T00:42:36.155Z,21.80
2024-04-12T00:47:38.436Z,19.40
2024-04-12T00:52:44.672Z,21.00
2024-04-12T00:57:46.837Z,22.90
2024-04-12T01:02:50.357Z,27.80
2024-04-12T01:07:57.640Z,24.90
2024-04-12T01:13:04.119Z,22.00
2024-04-12T01:18:16.568Z,21.40
2024-04-12T01:23:19.000Z,22.60
2024-04-12T01:28:21.018Z,31.00
2024-04-12T01:33:22.892Z,26.20
2024-04-12T01:38:24.890Z,25.20
2024-04-12T01:43:28.603Z,24.00
2024-04-12T01:48:32.091Z,22.60
2024-04-12T01:53:38.739Z,32.70
2024-04-12T01:58:42.271Z,26.20
2024-04-12T02:03:44.796Z,21.60
2024-04-12T02:08:46.851Z,21.70
2024-04-12T02:13:48.614Z,22.70
2024-04-12T02:18:50.352Z,22.70
2024-04-12T02:23:54.198Z,29.90
2024-04-12T02:29:00.319Z,25.30
2024-04-12T02:34:03.489Z,22.30
2024-04-12T02:39:09.295Z,19.90
2024-04-12T02:44:11.309Z,20.40
2024-04-12T02:49:14.179Z,27.00
2024-04-12T02:54:17.703Z,23.90
2024-04-12T02:59:19.547Z,22.60
2024-04-12T03:04:21.863Z,20.80
2024-04-12T03:09:28.422Z,21.00
2024-04-12T03:14:31.900Z,28.20
2024-04-12T03:19:33.819Z,23.70
2024-04-12T03:24:35.521Z,23.20
2024-04-12T03:29:37.489Z,21.40
2024-04-12T03:34:39.257Z,21.40
2024-04-12T03:39:40.919Z,28.50
2024-04-12T03:44:44.064Z,26.80
2024-04-12T03:49:46.024Z,24.10
2024-04-12T03:54:48.970Z,23.10
2024-04-12T03:59:58.561Z,21.40
2024-04-12T04:05:15.083Z,33.10
2024-04-12T04:10:21.694Z,25.70
2024-04-12T04:15:27.217Z,25.20
2024-04-12T04:20:29.645Z,24.60
2024-04-12T04:25:32.991Z,26.80
2024-04-12T04:30:36.554Z,36.60
2024-04-12T04:35:38.426Z,32.50
2024-04-12T04:40:40.165Z,28.40
2024-04-12T04:45:42.023Z,28.80
2024-04-12T04:50:44.760Z,25.80
2024-04-12T04:55:46.601Z,39.60
2024-04-12T05:00:50.677Z,34.50
2024-04-12T05:10:56.865Z,27.30
2024-04-12T05:15:59.188Z,26.30
2024-04-12T05:21:01.249Z,31.70
2024-04-12T05:26:03.237Z,27.50
2024-04-12T05:31:13.106Z,24.80
2024-04-12T05:36:15.684Z,22.30
2024-04-12T05:41:17.439Z,19.50
2024-04-12T05:46:23.651Z,23.60
2024-04-12T05:51:26.331Z,17.80
2024-04-12T05:56:30.289Z,18.10
2024-04-12T06:01:35.009Z,18.70
2024-04-12T06:06:36.956Z,19.20
2024-04-12T06:11:38.686Z,16.70
2024-04-12T06:16:41.360Z,15.90
2024-04-12T06:21:46.839Z,17.70
2024-04-12T06:26:49.244Z,18.80
2024-04-12T06:31:51.805Z,16.10
2024-04-12T06:37:07.164Z,14.10
2024-04-12T06:42:10.237Z,16.40
2024-04-12T06:47:14.608Z,14.40
2024-04-12T06:52:22.138Z,15.20
2024-04-12T06:57:26.487Z,15.70
2024-04-12T07:02:31.843Z,12.20
2024-04-12T07:07:34.582Z,12.30
2024-04-12T07:12:39.239Z,11.90
2024-04-12T07:17:41.396Z,9.90
2024-04-12T07:22:43.497Z,8.80
2024-04-12T07:27:49.317Z,8.90
2024-04-12T07:32:51.867Z,7.40
2024-04-12T07:38:03.595Z,7.60
2024-04-12T07:43:11.523Z,7.10
2024-04-12T07:48:23.639Z,8.70
2024-04-12T07:53:27.439Z,7.00
2024-04-12T07:58:35.450Z,7.00
2024-04-12T08:03:38.852Z,6.70
2024-04-12T08:08:46.791Z,6.20
2024-04-12T08:13:51.826Z,5.70
2024-04-12T08:18:56.749Z,5.80
2024-04-12T08:23:59.852Z,5.60
2024-04-12T08:29:07.943Z,7.70
2024-04-12T08:34:15.441Z,5.80
2024-04-12T08:39:27.553Z,4.10
2024-04-12T08:44:32.709Z,4.30
2024-04-12T08:49:34.544Z,3.70
2024-04-12T08:54:42.848Z,3.30
2024-04-12T08:59:48.293Z,3.30
2024-04-12T09:04:53.606Z,17.70
2024-04-12T09:09:55.826Z,2.90
2024-04-12T09:15:00.320Z,3.40
2024-04-12T09:20:05.247Z,3.40
2024-04-12T09:25:15.929Z,3.90
2024-04-12T09:30:36.418Z,3.70
2024-04-12T09:35:40.642Z,3.70
2024-04-12T09:40:50.428Z,3.20
2024-04-12T09:46:06.864Z,3.30
2024-04-12T09:51:27.886Z,2.90
2024-04-12T09:56:49.934Z,3.30
2024-04-12T10:02:14.151Z,2.70
2024-04-12T10:07:39.146Z,2.60
2024-04-12T10:13:00.588Z,2.90
2024-04-12T10:18:25.666Z,2.70
2024-04-12T10:23:49.839Z,2.10
2024-04-12T10:29:13.001Z,2.10
2024-04-12T10:34:35.754Z,2.20
2024-04-12T10:39:45.632Z,2.00
2024-04-12T10:44:57.634Z,2.10
2024-04-12T10:49:59.740Z,1.80
2024-04-12T10:55:12.177Z,2.10
2024-04-12T11:00:29.096Z,2.00
2024-04-12T11:15:43.945Z,3.00
2024-04-12T11:21:14.665Z,2.90
2024-04-12T11:26:39.145Z,3.10
2024-04-12T11:31:41.297Z,3.70
2024-04-12T11:36:45.858Z,4.00
2024-04-12T11:41:48.823Z,3.90
2024-04-12T11:46:52.100Z,3.40
2024-04-12T11:51:56.762Z,3.90
2024-04-12T11:57:00.791Z,3.70
2024-04-12T12:02:05.429Z,3.80
2024-04-12T12:07:12.258Z,1.90
2024-04-12T12:12:14.779Z,3.30
2024-04-12T12:17:19.583Z,3.10
2024-04-12T12:22:22.923Z,3.40
2024-04-12T12:27:25.337Z,2.60
2024-04-12T12:32:27.758Z,3.40
2024-04-12T12:37:30.348Z,3.10
2024-04-12T12:42:33.457Z,3.00
2024-04-12T12:47:36.710Z,2.80
2024-04-12T12:52:38.614Z,2.90
2024-04-12T12:57:40.598Z,3.30
2024-04-12T13:02:43.332Z,2.80
2024-04-12T13:07:45.398Z,2.20
2024-04-12T13:12:52.510Z,2.50
2024-04-12T13:17:54.431Z,2.00
2024-04-12T13:22:56.340Z,2.10
2024-04-12T13:28:01.952Z,2.50
2024-04-12T13:38:14.982Z,2.80
2024-04-12T13:43:18.128Z,2.20
2024-04-12T13:48:38.771Z,3.00
2024-04-12T13:53:44.997Z,2.20
2024-04-12T13:58:54.607Z,2.30
2024-04-12T14:04:05.096Z,2.20
2024-04-12T14:09:10.806Z,2.40
2024-04-12T14:14:12.697Z,2.00
2024-04-12T14:19:23.693Z,1.90
2024-04-12T14:24:44.427Z,2.40
2024-04-12T14:29:46.845Z,2.10
2024-04-12T14:34:58.228Z,2.10
2024-04-12T14:40:09.088Z,1.80
2024-04-12T14:45:10.815Z,1.80
2024-04-12T14:50:12.767Z,2.70
2024-04-12T14:55:16.904Z,2.30
2024-04-12T15:00:20.927Z,2.20
2024-04-12T15:05:41.578Z,2.70
2024-04-12T15:11:02.570Z,1.50
2024-04-12T15:16:22.998Z,1.80
2024-04-12T15:21:43.588Z,1.90
2024-04-12T15:27:03.913Z,2.00
2024-04-12T15:32:24.539Z,2.20
2024-04-12T15:37:45.371Z,2.20
2024-04-12T15:43:05.971Z,1.90
2024-04-12T15:48:13.090Z,2.10
2024-04-12T15:53:26.781Z,2.20
2024-04-12T15:58:48.946Z,1.60
2024-04-12T16:04:09.314Z,2.00
2024-04-12T16:09:29.770Z,1.70
2024-04-12T16:14:31.687Z,1.70
2024-04-12T16:19:34.116Z,1.70
2024-04-12T16:24:36.173Z,2.30
2024-04-12T16:29:38.131Z,3.80
2024-04-12T16:34:39.950Z,2.30
2024-04-12T16:39:42.009Z,2.90
2024-04-12T16:44:43.888Z,2.90
2024-04-12T16:49:45.786Z,1.90
2024-04-12T16:54:47.850Z,2.20
2024-04-12T16:59:49.871Z,2.30
2024-04-12T17:04:54.067Z,2.50
2024-04-12T17:09:58.913Z,3.50
2024-04-12T17:15:00.638Z,2.30
2024-04-12T17:20:04.060Z,1.80
2024-04-12T17:25:09.960Z,2.00
2024-04-12T17:30:12.923Z,2.10
2024-04-12T17:35:16.349Z,3.30
2024-04-12T17:40:21.121Z,3.40
2024-04-12T17:45:24.131Z,3.70
2024-04-12T17:50:26.473Z,4.20
2024-04-12T17:55:28.330Z,4.60
2024-04-12T18:00:30.080Z,3.80
2024-04-12T18:05:31.821Z,3.30
2024-04-12T18:10:33.525Z,3.60
2024-04-12T18:15:38.927Z,3.50
2024-04-12T18:20:42.605Z,2.90
2024-04-12T18:25:44.530Z,3.80
2024-04-12T18:30:46.242Z,3.10
2024-04-12T18:36:02.643Z,3.10
2024-04-12T18:41:24.984Z,10.10
2024-04-12T18:46:26.758Z,4.20
2024-04-12T18:51:28.452Z,3.40
2024-04-12T18:56:30.460Z,4.00
2024-04-12T19:01:32.296Z,3.50
2024-04-12T19:06:34.457Z,4.20
2024-04-12T19:11:36.361Z,5.00
2024-04-12T19:16:41.654Z,4.40
2024-04-12T19:21:44.942Z,4.00
2024-04-12T19:26:46.695Z,4.30
2024-04-12T19:31:51.541Z,4.40
2024-04-12T19:36:53.474Z,5.10
2024-04-12T19:41:57.195Z,7.40
2024-04-12T19:46:59.358Z,6.00
2024-04-12T19:52:04.870Z,6.80
2024-04-12T19:57:06.981Z,6.90
2024-04-12T20:02:09.022Z,6.10
2024-04-12T20:07:10.960Z,6.70
2024-04-12T20:12:13.014Z,11.50
2024-04-12T20:17:22.310Z,10.10
2024-04-12T20:22:24.177Z,9.90
2024-04-12T20:27:25.902Z,7.90
2024-04-12T20:32:37.362Z,8.80
2024-04-12T20:37:39.555Z,7.20
2024-04-12T20:42:41.348Z,6.20
2024-04-12T20:47:43.228Z,7.20
2024-04-12T20:52:45.062Z,6.40
2024-04-12T20:57:46.998Z,6.60
2024-04-12T21:02:48.652Z,6.40
2024-04-12T21:07:58.208Z,6.90
2024-04-12T21:12:59.967Z,8.10
2024-04-12T21:18:01.825Z,62.50
2024-04-12T21:23:09.163Z,14.50
2024-04-12T21:28:24.558Z,9.80
2024-04-12T21:33:27.969Z,9.90
2024-04-12T21:38:32.150Z,10.70
2024-04-12T21:43:37.379Z,12.00
2024-04-12T21:48:41.627Z,12.30
2024-04-12T21:53:43.477Z,12.50
2024-04-12T21:58:45.369Z,12.60
2024-04-12T22:03:47.387Z,12.20
2024-04-12T22:08:52.318Z,13.00
2024-04-12T22:13:54.086Z,13.40
2024-04-12T22:18:56.051Z,13.80
2024-04-12T22:24:00.239Z,13.80
2024-04-12T22:29:02.063Z,13.50
2024-04-12T22:34:03.801Z,13.80
2024-04-12T22:39:05.616Z,15.30
2024-04-12T22:44:07.523Z,15.00
2024-04-12T22:49:09.189Z,16.30
2024-04-12T22:54:10.959Z,14.50
2024-04-12T22:59:12.759Z,16.50
2024-04-12T23:04:14.526Z,15.00
2024-04-12T23:09:20.383Z,14.80
2024-04-12T23:14:22.511Z,14.90
2024-04-12T23:19:24.452Z,17.00
2024-04-12T23:24:26.230Z,18.30
2024-04-12T23:29:28.102Z,16.40
2024-04-12T23:34:29.884Z,18.50
2024-04-12T23:39:31.784Z,17.60
2024-04-12T23:44:34.150Z,19.70
2024-04-12T23:49:35.879Z,18.20
2024-04-12T23:54:38.259Z,16.50
2024-04-12T23:59:40.101Z,17.90
